sensor_id;sensor_type;location;lat;lon;timestamp;temperature;humidity
19025;DHT22;9645;51.448;6.260;2024-02-28T11:05:35;7.20;85.20
19025;DHT22;9645;51.448;6.260;2024-02-28T11:08:04;7.40;60.00
19025;DHT22;9645;51.448;6.260;2024-02-28T11:10:31;7.30;1.00
19025;DHT22;9645;51.448;6.260;2024-02-28T11:12:59;7.30;1.00
19025;DHT22;9645;51.448;6.260;2024-02-28T11:15:26;7.20;1.00
19025;DHT22;9645;51.448;6.260;2024-02-28T11:17:55;7.10;1.00
19025;DHT22;9645;51.448;6.260;2024-02-28T11:20:33;7.30;3.70
19025;DHT22;9645;51.448;6.260;2024-02-28T11:23:00;7.40;1.00
19025;DHT22;9645;51.448;6.260;2024-02-28T11:25:27;7.30;1.00
19025;DHT22;9645;51.448;6.260;2024-02-28T11:27:54;7.30;1.00
19025;DHT22;9645;51.448;6.260;2024-02-28T11:30:21;7.20;1.00
19025;DHT22;9645;51.448;6.260;2024-02-28T11:32:48;7.20;1.00
19025;DHT22;9645;51.448;6.260;2024-02-28T11:35:20;7.20;1.00
19025;DHT22;9645;51.448;6.260;2024-02-28T11:37:47;7.30;1.00
19025;DHT22;9645;51.448;6.260;2024-02-28T11:40:19;7.30;1.00
19025;DHT22;9645;51.448;6.260;2024-02-28T11:42:46;7.20;1.00
19025;DHT22;9645;51.448;6.260;2024-02-28T11:45:13;7.50;1.00
19025;DHT22;9645;51.448;6.260;2024-02-28T11:47:40;7.70;1.00
19025;DHT22;9645;51.448;6.260;2024-02-28T11:50:07;7.70;1.00
19025;DHT22;9645;51.448;6.260;2024-02-28T11:52:36;7.80;1.00
19025;DHT22;9645;51.448;6.260;2024-02-28T11:55:03;8.00;1.00
19025;DHT22;9645;51.448;6.260;2024-02-28T11:57:30;8.30;1.00
19025;DHT22;9645;51.448;6.260;2024-02-28T12:00:03;8.60;1.00
19025;DHT22;9645;51.448;6.260;2024-02-28T12:02:31;9.20;99.90
19025;DHT22;9645;51.448;6.260;2024-02-28T12:05:00;9.30;99.90
19025;DHT22;9645;51.448;6.260;2024-02-28T12:07:27;9.20;1.00
19025;DHT22;9645;51.448;6.260;2024-02-28T12:09:57;9.10;1.00
19025;DHT22;9645;51.448;6.260;2024-02-28T12:12:24;9.00;99.90
19025;DHT22;9645;51.448;6.260;2024-02-28T12:14:51;9.20;90.00
19025;DHT22;9645;51.448;6.260;2024-02-28T12:17:18;9.40;99.90
19025;DHT22;9645;51.448;6.260;2024-02-28T12:19:45;10.00;99.90
19025;DHT22;9645;51.448;6.260;2024-02-28T12:22:12;11.10;1.00
19025;DHT22;9645;51.448;6.260;2024-02-28T12:24:39;11.70;1.00
19025;DHT22;9645;51.448;6.260;2024-02-28T12:27:08;12.50;99.90
19025;DHT22;9645;51.448;6.260;2024-02-28T12:29:34;13.40;99.90
19025;DHT22;9645;51.448;6.260;2024-02-28T12:32:02;13.80;90.40
19025;DHT22;9645;51.448;6.260;2024-02-28T12:34:29;14.10;1.00
19025;DHT22;9645;51.448;6.260;2024-02-28T12:36:56;13.70;1.00
19025;DHT22;9645;51.448;6.260;2024-02-28T12:39:23;13.70;99.90
19025;DHT22;9645;51.448;6.260;2024-02-28T12:41:50;13.60;1.00
19025;DHT22;9645;51.448;6.260;2024-02-28T12:44:19;14.10;1.00
19025;DHT22;9645;51.448;6.260;2024-02-28T12:46:46;14.10;1.00
19025;DHT22;9645;51.448;6.260;2024-02-28T12:49:13;13.90;1.00
19025;DHT22;9645;51.448;6.260;2024-02-28T12:51:41;13.30;1.00
19025;DHT22;9645;51.448;6.260;2024-02-28T12:54:09;13.40;1.00
19025;DHT22;9645;51.448;6.260;2024-02-28T12:56:37;13.70;1.00
19025;DHT22;9645;51.448;6.260;2024-02-28T12:59:04;13.80;99.90
19025;DHT22;9645;51.448;6.260;2024-02-28T13:01:33;14.00;1.00
19025;DHT22;9645;51.448;6.260;2024-02-28T13:04:00;13.80;1.00
19025;DHT22;9645;51.448;6.260;2024-02-28T13:06:27;13.30;1.00
19025;DHT22;9645;51.448;6.260;2024-02-28T13:08:54;13.00;99.90
19025;DHT22;9645;51.448;6.260;2024-02-28T13:11:22;12.70;99.90
19025;DHT22;9645;51.448;6.260;2024-02-28T13:13:50;12.70;99.90
19025;DHT22;9645;51.448;6.260;2024-02-28T13:16:18;12.40;99.90
19025;DHT22;9645;51.448;6.260;2024-02-28T13:18:46;12.10;99.90
19025;DHT22;9645;51.448;6.260;2024-02-28T13:21:13;11.70;1.00
19025;DHT22;9645;51.448;6.260;2024-02-28T13:23:40;11.90;1.00
19025;DHT22;9645;51.448;6.260;2024-02-28T13:26:07;11.90;99.90
19025;DHT22;9645;51.448;6.260;2024-02-28T13:28:35;11.70;99.90
19025;DHT22;9645;51.448;6.260;2024-02-28T13:31:02;11.40;1.00
19025;DHT22;9645;51.448;6.260;2024-02-28T13:33:30;11.50;1.00
19025;DHT22;9645;51.448;6.260;2024-02-28T13:35:59;11.90;1.00
19025;DHT22;9645;51.448;6.260;2024-02-28T13:38:25;12.10;1.00
19025;DHT22;9645;51.448;6.260;2024-02-28T13:40:52;12.30;1.00
19025;DHT22;9645;51.448;6.260;2024-02-28T13:43:19;12.30;1.00
19025;DHT22;9645;51.448;6.260;2024-02-28T13:45:47;12.50;1.00
19025;DHT22;9645;51.448;6.260;2024-02-28T13:48:16;12.50;1.00
19025;DHT22;9645;51.448;6.260;2024-02-28T13:50:44;12.40;1.00
19025;DHT22;9645;51.448;6.260;2024-02-28T13:53:14;12.40;1.00
19025;DHT22;9645;51.448;6.260;2024-02-28T13:55:41;12.30;1.00
19025;DHT22;9645;51.448;6.260;2024-02-28T13:58:13;12.10;1.00
19025;DHT22;9645;51.448;6.260;2024-02-28T14:00:43;11.90;1.00
19025;DHT22;9645;51.448;6.260;2024-02-28T14:03:12;11.70;99.90
19025;DHT22;9645;51.448;6.260;2024-02-28T14:05:39;11.40;1.00
19025;DHT22;9645;51.448;6.260;2024-02-28T14:08:07;11.30;99.90
19025;DHT22;9645;51.448;6.260;2024-02-28T14:10:36;11.40;1.00
19025;DHT22;9645;51.448;6.260;2024-02-28T14:13:03;11.40;1.00
19025;DHT22;9645;51.448;6.260;2024-02-28T14:15:30;11.50;99.90
19025;DHT22;9645;51.448;6.260;2024-02-28T14:17:57;11.80;99.90
19025;DHT22;9645;51.448;6.260;2024-02-28T14:20:24;11.50;1.00
19025;DHT22;9645;51.448;6.260;2024-02-28T14:22:53;11.40;1.00
19025;DHT22;9645;51.448;6.260;2024-02-28T14:25:25;11.20;1.00
19025;DHT22;9645;51.448;6.260;2024-02-28T14:27:53;11.20;1.00
19025;DHT22;9645;51.448;6.260;2024-02-28T14:30:21;11.10;1.00
19025;DHT22;9645;51.448;6.260;2024-02-28T14:32:50;11.00;1.00
19025;DHT22;9645;51.448;6.260;2024-02-28T14:35:17;11.00;1.00
19025;DHT22;9645;51.448;6.260;2024-02-28T14:37:45;10.80;1.00
19025;DHT22;9645;51.448;6.260;2024-02-28T14:40:13;10.70;99.90
19025;DHT22;9645;51.448;6.260;2024-02-28T14:42:42;10.80;1.00
19025;DHT22;9645;51.448;6.260;2024-02-28T14:45:12;10.80;99.90
19025;DHT22;9645;51.448;6.260;2024-02-28T14:47:40;10.70;1.00
19025;DHT22;9645;51.448;6.260;2024-02-28T14:50:08;10.60;99.90
19025;DHT22;9645;51.448;6.260;2024-02-28T14:52:36;10.70;99.90
19025;DHT22;9645;51.448;6.260;2024-02-28T14:55:04;10.60;1.00
19025;DHT22;9645;51.448;6.260;2024-02-28T14:57:31;10.50;99.90
19025;DHT22;9645;51.448;6.260;2024-02-28T14:59:58;10.60;1.00
19025;DHT22;9645;51.448;6.260;2024-02-28T15:02:26;10.60;1.00
19025;DHT22;9645;51.448;6.260;2024-02-28T15:04:54;10.60;1.00
19025;DHT22;9645;51.448;6.260;2024-02-28T15:07:21;10.50;1.00
19025;DHT22;9645;51.448;6.260;2024-02-28T15:09:48;10.40;99.90
19025;DHT22;9645;51.448;6.260;2024-02-28T15:12:15;10.50;99.90
19025;DHT22;9645;51.448;6.260;2024-02-28T15:14:42;10.50;99.90
19025;DHT22;9645;51.448;6.260;2024-02-28T15:17:09;10.50;98.80
19025;DHT22;9645;51.448;6.260;2024-02-28T15:19:37;10.40;1.00
19025;DHT22;9645;51.448;6.260;2024-02-28T15:22:04;10.30;99.90
19025;DHT22;9645;51.448;6.260;2024-02-28T15:24:32;10.20;1.00
19025;DHT22;9645;51.448;6.260;2024-02-28T15:26:59;10.10;99.90
19025;DHT22;9645;51.448;6.260;2024-02-28T15:29:25;10.10;1.00
19025;DHT22;9645;51.448;6.260;2024-02-28T15:31:54;10.10;1.00
19025;DHT22;9645;51.448;6.260;2024-02-28T15:34:21;10.00;1.00
19025;DHT22;9645;51.448;6.260;2024-02-28T15:36:49;10.00;99.90
19025;DHT22;9645;51.448;6.260;2024-02-28T15:39:16;9.90;1.00
19025;DHT22;9645;51.448;6.260;2024-02-28T15:41:43;9.90;1.00
19025;DHT22;9645;51.448;6.260;2024-02-28T15:44:10;9.80;99.90
19025;DHT22;9645;51.448;6.260;2024-02-28T15:46:37;9.80;1.00
19025;DHT22;9645;51.448;6.260;2024-02-28T15:49:04;9.80;99.90
19025;DHT22;9645;51.448;6.260;2024-02-28T15:51:31;9.80;54.20
19025;DHT22;9645;51.448;6.260;2024-02-28T15:54:00;9.80;1.00
19025;DHT22;9645;51.448;6.260;2024-02-28T15:56:27;9.80;1.00
19025;DHT22;9645;51.448;6.260;2024-02-28T15:58:55;9.70;1.00
19025;DHT22;9645;51.448;6.260;2024-02-28T16:01:22;9.70;99.90
19025;DHT22;9645;51.448;6.260;2024-02-28T16:03:49;9.60;1.00
19025;DHT22;9645;51.448;6.260;2024-02-28T16:06:16;9.70;1.00
19025;DHT22;9645;51.448;6.260;2024-02-28T16:08:43;9.70;1.00
19025;DHT22;9645;51.448;6.260;2024-02-28T16:11:12;9.70;1.00
19025;DHT22;9645;51.448;6.260;2024-02-28T16:13:39;9.60;1.00
19025;DHT22;9645;51.448;6.260;2024-02-28T16:16:07;9.60;6.60
19025;DHT22;9645;51.448;6.260;2024-02-28T16:18:34;9.60;99.90
19025;DHT22;9645;51.448;6.260;2024-02-28T16:21:03;9.60;1.00
19025;DHT22;9645;51.448;6.260;2024-02-28T16:23:30;9.60;1.00
19025;DHT22;9645;51.448;6.260;2024-02-28T16:25:57;9.50;1.00
19025;DHT22;9645;51.448;6.260;2024-02-28T16:28:26;9.50;1.00
19025;DHT22;9645;51.448;6.260;2024-02-28T16:30:53;9.50;1.00
19025;DHT22;9645;51.448;6.260;2024-02-28T16:33:19;9.50;1.00
19025;DHT22;9645;51.448;6.260;2024-02-28T16:35:46;9.40;1.00
19025;DHT22;9645;51.448;6.260;2024-02-28T16:38:13;9.30;99.90
19025;DHT22;9645;51.448;6.260;2024-02-28T16:40:41;9.30;1.00
19025;DHT22;9645;51.448;6.260;2024-02-28T16:43:08;9.30;1.00
19025;DHT22;9645;51.448;6.260;2024-02-28T16:45:39;9.20;1.00
19025;DHT22;9645;51.448;6.260;2024-02-28T16:48:06;9.10;1.00
19025;DHT22;9645;51.448;6.260;2024-02-28T16:50:34;9.00;99.90
19025;DHT22;9645;51.448;6.260;2024-02-28T16:53:02;8.90;99.90
19025;DHT22;9645;51.448;6.260;2024-02-28T16:55:29;8.80;99.90
19025;DHT22;9645;51.448;6.260;2024-02-28T16:57:56;8.70;99.90
19025;DHT22;9645;51.448;6.260;2024-02-28T17:00:28;8.70;99.90
19025;DHT22;9645;51.448;6.260;2024-02-28T17:02:57;8.50;1.00
19025;DHT22;9645;51.448;6.260;2024-02-28T17:05:26;8.40;1.00
19025;DHT22;9645;51.448;6.260;2024-02-28T17:07:53;8.40;1.00
19025;DHT22;9645;51.448;6.260;2024-02-28T17:10:20;8.30;1.00
19025;DHT22;9645;51.448;6.260;2024-02-28T17:12:47;8.30;1.00
19025;DHT22;9645;51.448;6.260;2024-02-28T17:15:17;8.20;1.00
19025;DHT22;9645;51.448;6.260;2024-02-28T17:17:44;8.10;1.00
19025;DHT22;9645;51.448;6.260;2024-02-28T17:20:14;8.10;1.00
19025;DHT22;9645;51.448;6.260;2024-02-28T17:22:45;8.00;1.00
19025;DHT22;9645;51.448;6.260;2024-02-28T17:25:13;8.00;1.00
19025;DHT22;9645;51.448;6.260;2024-02-28T17:27:40;7.90;1.00
19025;DHT22;9645;51.448;6.260;2024-02-28T17:30:09;7.90;1.00
19025;DHT22;9645;51.448;6.260;2024-02-28T17:32:36;7.90;1.00
19025;DHT22;9645;51.448;6.260;2024-02-28T17:35:03;7.90;1.00
19025;DHT22;9645;51.448;6.260;2024-02-28T17:37:33;7.90;1.00
19025;DHT22;9645;51.448;6.260;2024-02-28T17:40:01;8.00;1.00
19025;DHT22;9645;51.448;6.260;2024-02-28T17:42:28;8.00;1.00
19025;DHT22;9645;51.448;6.260;2024-02-28T17:44:55;8.00;1.00
19025;DHT22;9645;51.448;6.260;2024-02-28T17:47:27;8.00;1.00
19025;DHT22;9645;51.448;6.260;2024-02-28T17:49:54;8.10;1.00
19025;DHT22;9645;51.448;6.260;2024-02-28T17:52:21;8.10;1.00
19025;DHT22;9645;51.448;6.260;2024-02-28T17:54:51;8.00;1.00
19025;DHT22;9645;51.448;6.260;2024-02-28T17:57:18;8.00;1.00
19025;DHT22;9645;51.448;6.260;2024-02-28T17:59:46;8.00;1.00
19025;DHT22;9645;51.448;6.260;2024-02-28T18:02:13;7.90;1.00
19025;DHT22;9645;51.448;6.260;2024-02-28T18:04:40;7.90;1.00
19025;DHT22;9645;51.448;6.260;2024-02-28T18:07:07;8.00;1.00
19025;DHT22;9645;51.448;6.260;2024-02-28T18:09:33;7.90;1.00
19025;DHT22;9645;51.448;6.260;2024-02-28T18:12:05;7.90;1.00
19025;DHT22;9645;51.448;6.260;2024-02-28T18:14:32;7.80;1.00
19025;DHT22;9645;51.448;6.260;2024-02-28T18:16:59;7.80;1.00
19025;DHT22;9645;51.448;6.260;2024-02-28T18:19:26;7.80;1.00
19025;DHT22;9645;51.448;6.260;2024-02-28T18:21:53;7.70;1.00
19025;DHT22;9645;51.448;6.260;2024-02-28T18:24:22;7.70;15.00
19025;DHT22;9645;51.448;6.260;2024-02-28T18:26:49;7.60;21.60
19025;DHT22;9645;51.448;6.260;2024-02-28T18:29:17;7.60;34.90
19025;DHT22;9645;51.448;6.260;2024-02-28T18:31:44;7.50;45.70
19025;DHT22;9645;51.448;6.260;2024-02-28T18:34:11;7.60;76.60
19025;DHT22;9645;51.448;6.260;2024-02-28T18:36:38;7.60;29.40
19025;DHT22;9645;51.448;6.260;2024-02-28T18:39:05;7.60;16.90
19025;DHT22;9645;51.448;6.260;2024-02-28T18:41:32;7.60;1.00
19025;DHT22;9645;51.448;6.260;2024-02-28T18:43:59;7.50;26.00
19025;DHT22;9645;51.448;6.260;2024-02-28T18:46:33;7.50;1.00
19025;DHT22;9645;51.448;6.260;2024-02-28T18:49:00;7.50;16.00
19025;DHT22;9645;51.448;6.260;2024-02-28T18:51:28;7.50;40.50
19025;DHT22;9645;51.448;6.260;2024-02-28T18:53:55;7.40;62.50
19025;DHT22;9645;51.448;6.260;2024-02-28T18:56:22;7.40;76.20
19025;DHT22;9645;51.448;6.260;2024-02-28T18:58:49;7.40;53.30
19025;DHT22;9645;51.448;6.260;2024-02-28T19:01:16;7.40;28.30
19025;DHT22;9645;51.448;6.260;2024-02-28T19:03:44;7.30;78.40
19025;DHT22;9645;51.448;6.260;2024-02-28T19:06:13;7.30;79.90
19025;DHT22;9645;51.448;6.260;2024-02-28T19:08:46;7.30;42.40
19025;DHT22;9645;51.448;6.260;2024-02-28T19:11:17;7.30;48.70
19025;DHT22;9645;51.448;6.260;2024-02-28T19:13:44;7.20;87.90
19025;DHT22;9645;51.448;6.260;2024-02-28T19:16:11;7.20;31.40
19025;DHT22;9645;51.448;6.260;2024-02-28T19:18:39;7.30;5.70
19025;DHT22;9645;51.448;6.260;2024-02-28T19:21:08;7.30;1.00
19025;DHT22;9645;51.448;6.260;2024-02-28T19:23:36;7.20;1.00
19025;DHT22;9645;51.448;6.260;2024-02-28T19:26:06;7.30;1.00
19025;DHT22;9645;51.448;6.260;2024-02-28T19:28:33;7.30;1.00
19025;DHT22;9645;51.448;6.260;2024-02-28T19:31:00;7.20;1.00
19025;DHT22;9645;51.448;6.260;2024-02-28T19:33:27;7.20;1.00
19025;DHT22;9645;51.448;6.260;2024-02-28T19:35:55;7.30;1.00
19025;DHT22;9645;51.448;6.260;2024-02-28T19:38:23;7.40;1.00
19025;DHT22;9645;51.448;6.260;2024-02-28T19:40:50;7.40;99.90
19025;DHT22;9645;51.448;6.260;2024-02-28T19:43:17;7.40;99.90
19025;DHT22;9645;51.448;6.260;2024-02-28T19:45:45;7.40;99.90
19025;DHT22;9645;51.448;6.260;2024-02-28T19:48:12;7.40;99.90
19025;DHT22;9645;51.448;6.260;2024-02-28T19:50:39;7.30;99.90
19025;DHT22;9645;51.448;6.260;2024-02-28T19:53:07;7.30;99.90
19025;DHT22;9645;51.448;6.260;2024-02-28T19:55:35;7.20;99.90
19025;DHT22;9645;51.448;6.260;2024-02-28T19:58:02;7.10;1.00
19025;DHT22;9645;51.448;6.260;2024-02-28T20:00:29;7.00;1.00
19025;DHT22;9645;51.448;6.260;2024-02-28T20:02:56;6.90;1.00
19025;DHT22;9645;51.448;6.260;2024-02-28T20:05:23;6.90;1.00
19025;DHT22;9645;51.448;6.260;2024-02-28T20:07:53;6.80;99.90
19025;DHT22;9645;51.448;6.260;2024-02-28T20:10:23;6.70;99.90
19025;DHT22;9645;51.448;6.260;2024-02-28T20:12:53;6.70;1.00
19025;DHT22;9645;51.448;6.260;2024-02-28T20:15:20;6.60;1.00
19025;DHT22;9645;51.448;6.260;2024-02-28T20:17:49;6.60;1.00
19025;DHT22;9645;51.448;6.260;2024-02-28T20:20:19;6.60;1.00
19025;DHT22;9645;51.448;6.260;2024-02-28T20:22:48;6.50;1.00
19025;DHT22;9645;51.448;6.260;2024-02-28T20:25:16;6.50;1.00
19025;DHT22;9645;51.448;6.260;2024-02-28T20:27:43;6.50;1.00
19025;DHT22;9645;51.448;6.260;2024-02-28T20:30:12;6.40;1.00
19025;DHT22;9645;51.448;6.260;2024-02-28T20:32:39;6.30;9.70
19025;DHT22;9645;51.448;6.260;2024-02-28T20:35:06;6.20;99.90
19025;DHT22;9645;51.448;6.260;2024-02-28T20:37:34;6.00;99.90
19025;DHT22;9645;51.448;6.260;2024-02-28T20:40:01;5.90;1.00
19025;DHT22;9645;51.448;6.260;2024-02-28T20:42:29;5.80;1.00
19025;DHT22;9645;51.448;6.260;2024-02-28T20:44:57;5.80;1.00
19025;DHT22;9645;51.448;6.260;2024-02-28T20:47:25;5.80;1.00
19025;DHT22;9645;51.448;6.260;2024-02-28T20:49:52;5.90;1.00
19025;DHT22;9645;51.448;6.260;2024-02-28T20:52:19;6.10;1.00
19025;DHT22;9645;51.448;6.260;2024-02-28T20:54:46;6.10;99.90
19025;DHT22;9645;51.448;6.260;2024-02-28T20:57:14;6.20;99.90
19025;DHT22;9645;51.448;6.260;2024-02-28T20:59:41;6.40;99.90
19025;DHT22;9645;51.448;6.260;2024-02-28T21:02:08;6.30;99.90
19025;DHT22;9645;51.448;6.260;2024-02-28T21:04:36;6.40;99.90
19025;DHT22;9645;51.448;6.260;2024-02-28T21:07:06;6.40;99.90
19025;DHT22;9645;51.448;6.260;2024-02-28T21:09:34;6.40;99.90
19025;DHT22;9645;51.448;6.260;2024-02-28T21:12:02;6.50;99.90
19025;DHT22;9645;51.448;6.260;2024-02-28T21:14:29;6.50;99.90
19025;DHT22;9645;51.448;6.260;2024-02-28T21:16:56;6.60;99.90
19025;DHT22;9645;51.448;6.260;2024-02-28T21:19:23;6.60;99.90
19025;DHT22;9645;51.448;6.260;2024-02-28T21:21:51;6.60;99.90
19025;DHT22;9645;51.448;6.260;2024-02-28T21:24:18;6.80;99.90
19025;DHT22;9645;51.448;6.260;2024-02-28T21:26:45;6.80;99.90
19025;DHT22;9645;51.448;6.260;2024-02-28T21:29:15;6.90;99.90
19025;DHT22;9645;51.448;6.260;2024-02-28T21:31:43;6.90;99.90
19025;DHT22;9645;51.448;6.260;2024-02-28T21:34:11;7.00;99.90
19025;DHT22;9645;51.448;6.260;2024-02-28T21:36:38;7.00;30.20
19025;DHT22;9645;51.448;6.260;2024-02-28T21:39:06;6.90;99.90
19025;DHT22;9645;51.448;6.260;2024-02-28T21:41:39;6.80;99.90
19025;DHT22;9645;51.448;6.260;2024-02-28T21:44:14;6.80;99.90
19025;DHT22;9645;51.448;6.260;2024-02-28T21:46:51;6.70;1.00
19025;DHT22;9645;51.448;6.260;2024-02-28T21:49:20;6.60;1.00
19025;DHT22;9645;51.448;6.260;2024-02-28T21:51:53;6.60;1.00
19025;DHT22;9645;51.448;6.260;2024-02-28T21:54:21;6.50;1.00
19025;DHT22;9645;51.448;6.260;2024-02-28T21:56:48;7.10;1.00
19025;DHT22;9645;51.448;6.260;2024-02-28T21:59:15;6.40;1.00
19025;DHT22;9645;51.448;6.260;2024-02-28T22:01:43;6.30;1.00
19025;DHT22;9645;51.448;6.260;2024-02-28T22:04:10;6.20;1.00
19025;DHT22;9645;51.448;6.260;2024-02-28T22:06:37;6.20;1.00
19025;DHT22;9645;51.448;6.260;2024-02-28T22:09:04;6.30;1.00
19025;DHT22;9645;51.448;6.260;2024-02-28T22:11:32;6.30;1.00
19025;DHT22;9645;51.448;6.260;2024-02-28T22:13:59;6.30;1.00
19025;DHT22;9645;51.448;6.260;2024-02-28T22:16:26;6.30;1.00
19025;DHT22;9645;51.448;6.260;2024-02-28T22:18:54;6.30;1.00
19025;DHT22;9645;51.448;6.260;2024-02-28T22:21:21;6.30;1.00
19025;DHT22;9645;51.448;6.260;2024-02-28T22:23:48;6.30;1.00
19025;DHT22;9645;51.448;6.260;2024-02-28T22:26:17;6.20;1.00
19025;DHT22;9645;51.448;6.260;2024-02-28T22:28:46;6.20;99.90
19025;DHT22;9645;51.448;6.260;2024-02-28T22:31:13;6.30;99.90
19025;DHT22;9645;51.448;6.260;2024-02-28T22:33:40;6.20;99.90
19025;DHT22;9645;51.448;6.260;2024-02-28T22:36:08;6.10;99.90
19025;DHT22;9645;51.448;6.260;2024-02-28T22:38:35;6.10;99.90
19025;DHT22;9645;51.448;6.260;2024-02-28T22:41:02;6.00;1.00
19025;DHT22;9645;51.448;6.260;2024-02-28T22:43:29;5.90;1.00
19025;DHT22;9645;51.448;6.260;2024-02-28T22:45:58;5.90;1.00
19025;DHT22;9645;51.448;6.260;2024-02-28T22:48:25;5.90;1.00
19025;DHT22;9645;51.448;6.260;2024-02-28T22:50:52;5.40;1.00
19025;DHT22;9645;51.448;6.260;2024-02-28T22:53:19;5.90;1.00
19025;DHT22;9645;51.448;6.260;2024-02-28T22:55:46;5.90;1.00
19025;DHT22;9645;51.448;6.260;2024-02-28T22:58:13;5.90;99.90
19025;DHT22;9645;51.448;6.260;2024-02-28T23:00:40;5.90;99.90
19025;DHT22;9645;51.448;6.260;2024-02-28T23:03:09;5.90;99.90
19025;DHT22;9645;51.448;6.260;2024-02-28T23:05:37;5.90;36.90
19025;DHT22;9645;51.448;6.260;2024-02-28T23:08:04;5.80;72.90
19025;DHT22;9645;51.448;6.260;2024-02-28T23:10:31;5.80;1.00
19025;DHT22;9645;51.448;6.260;2024-02-28T23:12:59;5.70;1.00
19025;DHT22;9645;51.448;6.260;2024-02-28T23:15:27;5.90;1.00
19025;DHT22;9645;51.448;6.260;2024-02-28T23:17:54;5.80;1.00
19025;DHT22;9645;51.448;6.260;2024-02-28T23:20:24;5.70;99.90
19025;DHT22;9645;51.448;6.260;2024-02-28T23:22:51;5.70;1.00
19025;DHT22;9645;51.448;6.260;2024-02-28T23:25:20;5.70;1.00
19025;DHT22;9645;51.448;6.260;2024-02-28T23:27:48;5.70;1.00
19025;DHT22;9645;51.448;6.260;2024-02-28T23:30:16;5.70;1.00
19025;DHT22;9645;51.448;6.260;2024-02-28T23:32:43;5.60;51.20
19025;DHT22;9645;51.448;6.260;2024-02-28T23:35:10;5.60;1.00
19025;DHT22;9645;51.448;6.260;2024-02-28T23:37:39;5.70;99.90
19025;DHT22;9645;51.448;6.260;2024-02-28T23:40:07;5.70;1.00
19025;DHT22;9645;51.448;6.260;2024-02-28T23:42:34;5.70;94.80
19025;DHT22;9645;51.448;6.260;2024-02-28T23:45:02;5.70;99.90
19025;DHT22;9645;51.448;6.260;2024-02-28T23:47:29;5.70;1.00
19025;DHT22;9645;51.448;6.260;2024-02-28T23:49:58;5.70;99.90
19025;DHT22;9645;51.448;6.260;2024-02-28T23:52:25;5.60;1.00
19025;DHT22;9645;51.448;6.260;2024-02-28T23:54:53;5.60;1.00
19025;DHT22;9645;51.448;6.260;2024-02-28T23:57:20;5.60;99.90
19025;DHT22;9645;51.448;6.260;2024-02-28T23:59:47;5.60;1.00
